Time;durP1;ratioP1;P1;durP2;ratioP2;P2;SDS_P1;SDS_P2;PMS_P1;PMS_P2;Temp;Humidity;BMP_temperature;BMP_pressure;BME280_temperature;BME280_humidity;BME280_pressure;Samples;Min_cycle;Max_cycle;Signal;HPM_P1;HPM_P2
2024/03/22 00:00:12;;;;;;;13.90;11.30;;;13.30;99.90;;;;;;4939691;29;20261;-86
2024/03/22 00:02:38;;;;;;;11.50;10.30;;;10.50;99.90;;;;;;4941448;29;20211;-86
2024/03/22 00:05:04;;;;;;;12.45;10.77;;;10.70;99.90;;;;;;4942399;29;20422;-87
2024/03/22 00:07:30;;;;;;;13.93;11.15;;;10.40;99.90;;;;;;4938979;28;20201;-87
2024/03/22 00:09:56;;;;;;;12.57;11.27;;;10.40;99.90;;;;;;4920097;29;20295;-87
2024/03/22 00:12:22;;;;;;;13.90;11.87;;;10.10;99.90;;;;;;4941098;29;20250;-86
2024/03/22 00:14:48;;;;;;;11.52;10.43;;;8.70;99.90;;;;;;4940497;29;20438;-86
2024/03/22 00:17:15;;;;;;;13.57;11.17;;;10.10;99.90;;;;;;4939537;29;20301;-86
2024/03/22 00:19:40;;;;;;;14.50;11.57;;;10.40;99.90;;;;;;4927816;29;20206;-85
2024/03/22 00:22:11;;;;;;;15.40;10.93;;;13.30;99.90;;;;;;4943785;29;20200;-86
2024/03/22 00:24:36;;;;;;;13.13;11.68;;;9.90;99.90;;;;;;4942561;29;20263;-86
2024/03/22 00:27:02;;;;;;;12.43;11.10;;;10.20;99.90;;;;;;4935257;29;20200;-86
2024/03/22 00:29:27;;;;;;;11.67;10.57;;;10.20;99.90;;;;;;4935581;29;20202;-85
2024/03/22 00:31:53;;;;;;;11.40;9.57;;;;;;;;;;4934652;29;20212;-86
2024/03/22 00:34:19;;;;;;;11.47;10.27;;;9.80;99.90;;;;;;4956373;29;20197;-87
2024/03/22 00:36:45;;;;;;;14.55;10.65;;;9.60;99.90;;;;;;4943186;28;20479;-84
2024/03/22 00:39:12;;;;;;;12.80;11.50;;;;;;;;;;4937213;29;20202;-86
2024/03/22 00:41:39;;;;;;;11.90;10.68;;;9.80;99.90;;;;;;4935535;29;20190;-85
2024/03/22 00:44:05;;;;;;;13.07;11.65;;;;;;;;;;4932209;29;20208;-87
2024/03/22 00:46:31;;;;;;;12.45;11.10;;;9.90;99.90;;;;;;4938315;29;20207;-86
2024/03/22 00:48:58;;;;;;;14.38;12.32;;;9.70;99.90;;;;;;4939498;29;20197;-86
2024/03/22 00:51:25;;;;;;;13.07;11.45;;;9.70;99.90;;;;;;4942214;29;20189;-86
2024/03/22 00:53:51;;;;;;;15.77;12.32;;;11.00;99.90;;;;;;4940766;29;20265;-86
2024/03/22 00:56:16;;;;;;;12.57;10.47;;;9.40;99.90;;;;;;4937666;29;20253;-86
2024/03/22 00:58:44;;;;;;;13.73;10.40;;;;;;;;;;4937931;29;20207;-85
2024/03/22 01:01:09;;;;;;;11.63;10.43;;;9.60;99.90;;;;;;4936470;29;20232;-85
2024/03/22 01:03:38;;;;;;;12.87;10.70;;;11.60;99.90;;;;;;4939541;29;20590;-86
2024/03/22 01:06:04;;;;;;;11.20;9.57;;;;;;;;;;4937780;29;20206;-86
2024/03/22 01:08:29;;;;;;;11.32;10.18;;;9.60;99.90;;;;;;4938187;29;20249;-86
2024/03/22 01:11:01;;;;;;;11.33;10.13;;;9.70;99.90;;;;;;4943632;29;20201;-86
2024/03/22 01:13:26;;;;;;;11.75;10.43;;;12.40;99.90;;;;;;4942461;29;20639;-84
2024/03/22 01:15:52;;;;;;;11.20;10.00;;;;;;;;;;4942755;29;20210;-86
2024/03/22 01:18:18;;;;;;;14.75;9.95;;;9.60;99.90;;;;;;4935976;29;20724;-86
2024/03/22 01:20:47;;;;;;;11.73;9.90;;;9.80;99.90;;;;;;4956526;28;20654;-86
2024/03/22 01:23:13;;;;;;;11.73;10.52;;;;;;;;;;4936430;29;20183;-85
2024/03/22 01:25:40;;;;;;;11.13;9.93;;;9.20;99.90;;;;;;4940272;29;20261;-86
2024/03/22 01:28:05;;;;;;;11.85;10.25;;;9.60;99.90;;;;;;4924648;29;20457;-85
2024/03/22 01:30:33;;;;;;;13.40;10.20;;;9.50;99.90;;;;;;4941092;29;20260;-87
2024/03/22 01:32:59;;;;;;;11.45;9.48;;;8.90;99.90;;;;;;4956285;28;20253;-85
2024/03/22 01:35:25;;;;;;;13.83;10.50;;;;;;;;;;4934429;29;20216;-86
2024/03/22 01:37:50;;;;;;;11.48;10.30;;;9.10;99.90;;;;;;4933427;29;20210;-86
2024/03/22 01:40:16;;;;;;;11.57;10.37;;;8.40;99.90;;;;;;4963553;28;20191;-86
2024/03/22 01:42:42;;;;;;;12.43;10.23;;;;;;;;;;4948519;29;20412;-85
2024/03/22 01:45:13;;;;;;;10.65;9.55;;;9.00;99.90;;;;;;4939987;28;20200;-85
2024/03/22 01:47:39;;;;;;;12.75;10.57;;;;;;;;;;4942382;29;20205;-84
2024/03/22 01:50:09;;;;;;;12.70;10.07;;;8.90;99.90;;;;;;4945466;29;20253;-86
2024/03/22 01:52:36;;;;;;;11.95;10.40;;;8.80;99.90;;;;;;4950784;29;20445;-85
2024/03/22 01:55:06;;;;;;;17.88;9.65;;;8.80;99.90;;;;;;4949971;29;20191;-86
2024/03/22 01:57:33;;;;;;;12.95;10.73;;;8.80;99.90;;;;;;4947222;29;20209;-85
2024/03/22 01:59:59;;;;;;;11.20;9.82;;;8.50;99.90;;;;;;4951718;29;20178;-86
2024/03/22 02:02:25;;;;;;;13.10;11.00;;;10.80;99.90;;;;;;4944733;29;20182;-84
2024/03/22 02:04:56;;;;;;;11.13;9.93;;;10.50;99.90;;;;;;4951068;29;20185;-84
2024/03/22 02:07:22;;;;;;;11.38;10.13;;;8.50;99.90;;;;;;4942522;29;20243;-84
2024/03/22 02:09:49;;;;;;;12.13;10.10;;;8.60;99.90;;;;;;4943253;29;20201;-85
2024/03/22 02:12:15;;;;;;;12.25;10.40;;;;;;;;;;4944297;28;20193;-86
2024/03/22 02:14:41;;;;;;;12.35;10.52;;;8.70;99.90;;;;;;4953816;29;20204;-85
2024/03/22 02:17:07;;;;;;;12.60;10.10;;;9.10;99.90;;;;;;4951164;28;20601;-84
2024/03/22 02:19:32;;;;;;;13.77;10.50;;;8.30;99.90;;;;;;4952350;28;20223;-84
2024/03/22 02:21:58;;;;;;;10.93;9.00;;;10.30;99.90;;;;;;4969699;28;20178;-85
2024/03/22 02:24:24;;;;;;;12.30;9.93;;;10.10;99.90;;;;;;4954819;29;20448;-84
2024/03/22 02:26:49;;;;;;;11.73;10.53;;;8.40;99.90;;;;;;4952042;29;20201;-88
2024/03/22 02:29:16;;;;;;;13.90;10.87;;;9.40;99.90;;;;;;4953099;29;20181;-86
2024/03/22 02:31:42;;;;;;;21.48;10.88;;;;;;;;;;4951806;29;20913;-86
2024/03/22 02:34:08;;;;;;;14.05;10.77;;;;;;;;;;4951491;29;20190;-84
2024/03/22 02:36:33;;;;;;;12.43;10.70;;;;;;;;;;4953113;29;20233;-86
2024/03/22 02:39:00;;;;;;;11.23;9.50;;;8.60;99.90;;;;;;4954199;29;20507;-86
2024/03/22 02:41:27;;;;;;;12.30;11.00;;;8.30;99.90;;;;;;4954449;29;20542;-86
2024/03/22 02:43:53;;;;;;;17.30;10.90;;;;;;;;;;4955878;29;20178;-86
2024/03/22 02:46:19;;;;;;;14.50;10.13;;;;;;;;;;4951722;29;20207;-87
2024/03/22 02:48:44;;;;;;;11.60;10.40;;;8.40;99.90;;;;;;4954491;29;20445;-86
2024/03/22 02:51:10;;;;;;;13.90;9.93;;;;;;;;;;4950344;28;20527;-86
2024/03/22 02:53:36;;;;;;;16.47;11.07;;;;;;;;;;4954969;29;20193;-86
2024/03/22 02:56:02;;;;;;;13.07;11.67;;;8.00;99.90;;;;;;4948188;29;20494;-86
2024/03/22 02:58:27;;;;;;;12.20;9.70;;;8.10;99.90;;;;;;4953993;29;20511;-86
2024/03/22 03:00:53;;;;;;;13.20;10.73;;;7.50;99.90;;;;;;4953453;29;20236;-84
2024/03/22 03:03:18;;;;;;;10.70;9.60;;;7.50;99.90;;;;;;4954654;29;20201;-86
2024/03/22 03:05:44;;;;;;;11.00;9.73;;;;;;;;;;4949783;29;20690;-86
2024/03/22 03:08:10;;;;;;;14.45;10.65;;;8.10;99.90;;;;;;4932757;29;20648;-86
2024/03/22 03:10:36;;;;;;;12.33;11.03;;;;;;;;;;4954226;29;20277;-86
2024/03/22 03:13:02;;;;;;;12.55;10.73;;;;;;;;;;4954076;29;20194;-86
2024/03/22 03:15:29;;;;;;;13.68;11.80;;;8.10;99.90;;;;;;4958752;28;20185;-86
2024/03/22 03:17:55;;;;;;;13.55;12.20;;;;;;;;;;4954080;29;20210;-86
2024/03/22 03:20:21;;;;;;;10.90;9.80;;;;;;;;;;4953565;29;20246;-87
2024/03/22 03:22:46;;;;;;;12.27;10.60;;;8.30;99.90;;;;;;4970894;29;20537;-85
2024/03/22 03:25:13;;;;;;;14.70;11.00;;;7.90;99.90;;;;;;4938789;29;20446;-84
2024/03/22 03:27:39;;;;;;;12.48;10.32;;;;;;;;;;4953169;29;20205;-85
2024/03/22 03:30:05;;;;;;;12.07;9.85;;;8.60;99.90;;;;;;4953163;29;20212;-85
2024/03/22 03:32:31;;;;;;;12.02;10.45;;;;;;;;;;4956539;29;20193;-85
2024/03/22 03:34:56;;;;;;;11.83;10.30;;;8.90;99.90;;;;;;4950716;29;20197;-86
2024/03/22 03:37:22;;;;;;;12.00;10.30;;;8.50;99.90;;;;;;4949413;29;20464;-84
2024/03/22 03:39:48;;;;;;;12.03;10.77;;;;;;;;;;4949377;29;20217;-85
2024/03/22 03:42:13;;;;;;;11.30;10.10;;;8.80;99.90;;;;;;4951663;28;20211;-86
2024/03/22 03:44:41;;;;;;;11.93;10.70;;;;;;;;;;4952924;29;20188;-86
2024/03/22 03:47:06;;;;;;;14.85;10.75;;;8.60;99.90;;;;;;4953010;28;20666;-85
2024/03/22 03:49:32;;;;;;;15.30;11.17;;;8.60;99.90;;;;;;4952796;29;20166;-86
2024/03/22 03:51:59;;;;;;;11.77;10.30;;;8.80;99.90;;;;;;4953490;29;20189;-85
2024/03/22 03:54:24;;;;;;;14.23;10.52;;;8.60;99.90;;;;;;4955302;28;20196;-84
2024/03/22 03:56:50;;;;;;;11.63;10.53;;;8.30;99.90;;;;;;4954921;29;20217;-85
2024/03/22 03:59:16;;;;;;;17.63;10.90;;;;;;;;;;4954825;29;20213;-85
2024/03/22 04:01:41;;;;;;;10.93;9.75;;;8.50;99.90;;;;;;4955973;29;20241;-85
2024/03/22 04:04:09;;;;;;;12.83;10.87;;;;;;;;;;4955500;29;20181;-85
2024/03/22 04:06:34;;;;;;;12.30;9.98;;;8.80;99.90;;;;;;4955895;29;20206;-86
2024/03/22 04:09:00;;;;;;;11.87;10.20;;;8.30;99.90;;;;;;4955347;29;20251;-86
2024/03/22 04:11:26;;;;;;;11.70;9.88;;;8.90;99.90;;;;;;4959367;28;20181;-86
2024/03/22 04:13:51;;;;;;;13.10;9.77;;;8.20;99.90;;;;;;4938261;29;20217;-86
2024/03/22 04:16:19;;;;;;;11.63;10.43;;;;;;;;;;4953107;29;20456;-85
2024/03/22 04:18:44;;;;;;;11.98;9.70;;;8.40;99.90;;;;;;4954495;29;20212;-86
2024/03/22 04:21:10;;;;;;;11.60;10.40;;;9.00;99.90;;;;;;4952525;29;20189;-86
2024/03/22 04:23:36;;;;;;;11.33;10.23;;;;;;;;;;4951243;29;20264;-86
2024/03/22 04:26:02;;;;;;;13.00;10.10;;;;;;;;;;4954672;28;20193;-86
2024/03/22 04:28:29;;;;;;;12.57;11.23;;;8.50;99.90;;;;;;4936334;29;20928;-86
2024/03/22 04:31:00;;;;;;;12.27;10.35;;;9.50;99.90;;;;;;4936879;29;20289;-85
2024/03/22 04:33:26;;;;;;;11.75;10.25;;;11.50;99.90;;;;;;4936913;29;20187;-85
2024/03/22 04:35:52;;;;;;;10.80;9.07;;;;;;;;;;4946556;29;20209;-86
2024/03/22 04:38:18;;;;;;;13.38;10.52;;;8.70;99.90;;;;;;4953711;28;20216;-86
2024/03/22 04:40:43;;;;;;;12.00;9.40;;;10.00;99.90;;;;;;4946688;29;20177;-86
2024/03/22 04:43:09;;;;;;;13.43;11.23;;;;;;;;;;4948025;29;20211;-84
2024/03/22 04:45:35;;;;;;;10.98;9.82;;;9.00;99.90;;;;;;4939869;29;20185;-85
2024/03/22 04:48:04;;;;;;;11.67;9.33;;;8.40;99.90;;;;;;4940249;29;20220;-85
2024/03/22 04:50:30;;;;;;;13.40;10.30;;;9.10;99.90;;;;;;4933966;29;20190;-87
2024/03/22 04:52:56;;;;;;;10.18;9.27;;;9.80;99.90;;;;;;4938954;29;20281;-86
2024/03/22 04:55:22;;;;;;;10.03;9.03;;;;;;;;;;4941482;29;20221;-85
2024/03/22 04:57:48;;;;;;;9.93;9.00;;;9.40;99.90;;;;;;4967995;29;20189;-86
2024/03/22 05:00:14;;;;;;;14.43;10.00;;;9.50;99.90;;;;;;4952680;29;20469;-85
2024/03/22 05:02:40;;;;;;;10.52;9.50;;;;;;;;;;4948308;29;20273;-86
2024/03/22 05:05:07;;;;;;;12.40;9.35;;;9.50;99.90;;;;;;4946261;29;20650;-84
2024/03/22 05:07:34;;;;;;;11.30;10.05;;;;;;;;;;4944124;29;20219;-87
2024/03/22 05:09:59;;;;;;;11.70;10.25;;;9.50;99.90;;;;;;4938617;29;20206;-86
2024/03/22 05:12:25;;;;;;;12.30;9.40;;;9.70;99.90;;;;;;4940524;29;20237;-86
2024/03/22 05:14:50;;;;;;;11.50;8.30;;;9.40;99.90;;;;;;4938897;29;20205;-85
2024/03/22 05:17:16;;;;;;;15.23;9.37;;;11.50;99.90;;;;;;4960798;28;20264;-85
2024/03/22 05:19:42;;;;;;;9.53;8.17;;;;;;;;;;4941348;28;20718;-85
2024/03/22 05:22:08;;;;;;;9.80;8.30;;;;;;;;;;4937158;29;20193;-86
2024/03/22 05:24:34;;;;;;;9.47;8.50;;;;;;;;;;4930484;28;20546;-85
2024/03/22 05:27:00;;;;;;;11.37;8.47;;;;;;;;;;4935728;29;20623;-85
2024/03/22 05:29:25;;;;;;;9.88;8.13;;;10.00;99.90;;;;;;4937054;29;20445;-85
2024/03/22 05:31:51;;;;;;;10.30;9.30;;;10.70;99.90;;;;;;4945235;29;20208;-85
2024/03/22 05:34:18;;;;;;;13.80;9.50;;;10.00;99.90;;;;;;4940868;29;20194;-85
2024/03/22 05:36:44;;;;;;;10.43;8.90;;;;;;;;;;4939687;29;20211;-85
2024/03/22 05:39:12;;;;;;;10.50;8.60;;;10.00;99.90;;;;;;4945492;28;20224;-86
2024/03/22 05:41:38;;;;;;;10.07;8.93;;;10.90;99.90;;;;;;4923303;29;20203;-85
2024/03/22 05:44:04;;;;;;;10.40;8.35;;;11.40;99.90;;;;;;4938057;29;20194;-86
2024/03/22 05:46:30;;;;;;;8.85;7.80;;;10.40;99.90;;;;;;4941343;29;20216;-86
2024/03/22 05:48:58;;;;;;;10.20;8.18;;;11.40;99.90;;;;;;4929710;29;20706;-85
2024/03/22 05:51:24;;;;;;;9.23;8.27;;;;;;;;;;4944792;29;20195;-87
2024/03/22 05:53:50;;;;;;;10.00;8.73;;;10.20;99.90;;;;;;4941760;29;20388;-84
2024/03/22 05:56:16;;;;;;;10.43;8.53;;;;;;;;;;4941359;28;20214;-85
2024/03/22 05:58:42;;;;;;;9.65;8.65;;;;;;;;;;4946222;28;20204;-85
2024/03/22 06:01:08;;;;;;;9.57;7.90;;;;;;;;;;4950295;28;20274;-85
2024/03/22 06:03:33;;;;;;;8.53;7.60;;;10.40;99.90;;;;;;4940486;28;20457;-85
2024/03/22 06:06:00;;;;;;;12.47;8.60;;;9.90;99.90;;;;;;4940769;28;20466;-85
2024/03/22 06:08:31;;;;;;;9.95;8.35;;;10.10;99.90;;;;;;4941967;28;20279;-85
2024/03/22 06:10:57;;;;;;;9.57;8.57;;;9.80;99.90;;;;;;4935680;28;20189;-87
2024/03/22 06:13:23;;;;;;;9.30;8.27;;;10.10;99.90;;;;;;4934552;28;20708;-86
2024/03/22 06:15:49;;;;;;;10.80;8.43;;;10.80;99.90;;;;;;4923211;28;20223;-87
2024/03/22 06:18:16;;;;;;;11.38;8.45;;;10.50;99.90;;;;;;4960681;28;20572;-86
2024/03/22 06:20:43;;;;;;;11.73;8.85;;;10.00;99.90;;;;;;4938749;28;20185;-87
2024/03/22 06:23:09;;;;;;;10.02;8.10;;;10.50;99.90;;;;;;4948608;28;20188;-88
2024/03/22 06:25:35;;;;;;;9.27;8.30;;;10.80;99.90;;;;;;4937881;28;20191;-87
2024/03/22 06:28:01;;;;;;;9.97;8.57;;;12.00;99.90;;;;;;4944144;29;20199;-87
2024/03/22 06:30:29;;;;;;;9.50;8.50;;;12.80;99.90;;;;;;4941297;28;20258;-86
2024/03/22 06:32:55;;;;;;;9.25;8.35;;;10.80;99.90;;;;;;4942847;29;20426;-87
2024/03/22 06:35:22;;;;;;;11.50;8.50;;;10.50;99.90;;;;;;4946065;28;20195;-88
2024/03/22 06:37:48;;;;;;;10.30;8.27;;;11.20;99.90;;;;;;4949472;28;20179;-88
2024/03/22 06:40:14;;;;;;;10.32;9.32;;;;;;;;;;4947400;28;20784;-87
2024/03/22 06:42:41;;;;;;;10.98;9.07;;;;;;;;;;4963604;28;20192;-89
2024/03/22 06:45:07;;;;;;;9.55;8.45;;;10.60;99.90;;;;;;4941143;28;20227;-88
2024/03/22 06:47:32;;;;;;;9.77;8.77;;;10.90;99.90;;;;;;4933831;28;20207;-89
2024/03/22 06:49:58;;;;;;;9.87;8.87;;;11.80;99.90;;;;;;4931303;29;20226;-89
2024/03/22 06:52:24;;;;;;;10.60;9.10;;;11.40;99.90;;;;;;4931588;29;20191;-88
2024/03/22 06:54:49;;;;;;;9.07;8.20;;;;;;;;;;4931882;29;20185;-89
2024/03/22 06:57:15;;;;;;;8.80;7.50;;;12.30;99.90;;;;;;4939359;29;20697;-88
2024/03/22 07:00:14;;;;;;;9.40;8.50;;;12.00;99.90;;;;;;4949326;28;20479;-88
2024/03/22 07:02:42;;;;;;;10.75;8.48;;;13.40;99.90;;;;;;4920751;29;20471;-86
2024/03/22 07:05:14;;;;;;;9.30;8.00;;;14.00;99.90;;;;;;4930142;29;20195;-87
2024/03/22 07:07:39;;;;;;;8.15;7.20;;;14.30;99.90;;;;;;4927354;29;20201;-86
2024/03/22 07:10:05;;;;;;;9.80;7.10;;;15.10;99.90;;;;;;4928389;28;20327;-86
2024/03/22 07:12:32;;;;;;;8.43;7.57;;;16.10;99.90;;;;;;4928766;29;20220;-87
2024/03/22 07:14:59;;;;;;;8.20;6.72;;;18.10;99.90;;;;;;4925383;28;20190;-88
2024/03/22 07:17:25;;;;;;;8.85;7.50;;;17.10;98.30;;;;;;4948613;28;20200;-88
2024/03/22 07:19:51;;;;;;;9.13;7.80;;;17.80;97.70;;;;;;4930007;29;20275;-89
2024/03/22 07:22:18;;;;;;;9.15;8.02;;;19.10;95.90;;;;;;4929947;28;20195;-88
2024/03/22 07:24:52;;;;;;;7.93;6.35;;;19.00;95.00;;;;;;4928645;28;20281;-87
2024/03/22 07:27:18;;;;;;;8.55;7.65;;;20.40;95.30;;;;;;4931898;29;20219;-86
2024/03/22 07:29:47;;;;;;;8.70;7.57;;;20.60;93.30;;;;;;4937972;29;20225;-86
2024/03/22 07:32:15;;;;;;;8.15;7.45;;;20.50;93.60;;;;;;4932011;29;20209;-89
2024/03/22 07:34:41;;;;;;;8.70;7.90;;;22.90;90.90;;;;;;4928222;28;20185;-86
2024/03/22 07:37:11;;;;;;;9.83;8.53;;;23.10;84.50;;;;;;4937828;29;21129;-86
2024/03/22 07:39:39;;;;;;;9.93;8.23;;;24.70;79.30;;;;;;4937758;28;20708;-87
2024/03/22 07:42:07;;;;;;;9.57;8.67;;;27.20;76.30;;;;;;4927449;29;20466;-89
2024/03/22 07:44:33;;;;;;;14.07;8.50;;;26.70;75.20;;;;;;4932267;29;20456;-86
2024/03/22 07:50:02;;;;;;;8.67;7.97;;;27.30;64.80;;;;;;4948604;28;20255;-86
2024/03/22 07:53:15;;;;;;;;;;;;;;;;;;;;;
2024/03/22 07:59:00;;;;;;;7.90;7.10;;;28.20;59.30;;;;;;4898548;29;20476;-87
2024/03/22 08:32:13;;;;;;;7.50;6.00;;;26.80;53.30;;;;;;4948641;28;21272;-87
2024/03/22 08:34:39;;;;;;;7.80;6.30;;;27.00;54.80;;;;;;4931958;29;20567;-87
2024/03/22 08:37:06;;;;;;;5.50;5.00;;;26.60;55.30;;;;;;4915483;29;20210;-88
2024/03/22 08:39:32;;;;;;;7.33;6.63;;;28.10;54.90;;;;;;4912870;29;20209;-87
2024/03/22 08:41:58;;;;;;;6.97;6.27;;;27.70;51.60;;;;;;4912099;29;20448;-88
2024/03/22 08:44:24;;;;;;;6.67;6.07;;;29.60;53.50;;;;;;4914049;29;20444;-88
2024/03/22 08:46:50;;;;;;;6.50;5.90;;;27.00;53.60;;;;;;4914676;29;20373;-87
2024/03/22 08:49:15;;;;;;;6.47;5.47;;;26.40;54.00;;;;;;4914191;29;20672;-87
2024/03/22 08:51:41;;;;;;;6.63;6.00;;;27.70;54.10;;;;;;4913363;29;20460;-87
2024/03/22 08:54:07;;;;;;;5.93;5.43;;;25.60;54.20;;;;;;4915640;29;20659;-87
2024/03/22 08:56:33;;;;;;;5.80;5.20;;;;;;;;;;4946350;28;20219;-88
2024/03/22 08:59:00;;;;;;;6.27;5.43;;;24.70;54.50;;;;;;4958157;28;20254;-89
2024/03/22 09:01:26;;;;;;;6.10;5.23;;;25.20;58.00;;;;;;4919949;29;20462;-91
2024/03/22 09:03:52;;;;;;;6.67;6.03;;;25.20;58.40;;;;;;4922608;29;20445;-88
2024/03/22 09:06:17;;;;;;;6.03;4.93;;;23.40;58.90;;;;;;4922361;29;20469;-89
2024/03/22 09:08:45;;;;;;;7.40;6.03;;;24.50;65.00;;;;;;4924909;29;20189;-89
2024/03/22 09:11:12;;;;;;;7.97;6.10;;;25.10;65.60;;;;;;4920822;29;20453;-89
2024/03/22 09:13:38;;;;;;;5.63;5.00;;;24.40;62.80;;;;;;4923128;29;20213;-91
2024/03/22 09:16:04;;;;;;;5.77;5.17;;;24.80;62.80;;;;;;4909174;29;21032;-90
2024/03/22 09:18:29;;;;;;;5.27;4.73;;;23.00;59.90;;;;;;4923873;29;20473;-88
2024/03/22 09:21:42;;;;;;;5.37;4.87;;;22.80;59.40;;;;;;4921523;29;20453;-89
2024/03/22 09:56:16;;;;;;;;;;;;;;;;;;;;;
2024/03/22 11:52:53;;;;;;;3.97;3.50;;;24.10;47.40;;;;;;5982464;23;20417;-88
2024/03/22 12:05:54;;;;;;;7.03;5.20;;;23.90;52.30;;;;;;4977216;23;20924;-88
2024/03/22 12:08:20;;;;;;;4.40;4.00;;;26.00;55.40;;;;;;4931655;28;20809;-86
2024/03/22 12:10:45;;;;;;;5.60;4.37;;;24.80;53.00;;;;;;4940277;28;21047;-86
2024/03/22 12:13:11;;;;;;;3.90;3.60;;;26.20;54.90;;;;;;4937206;28;20201;-86
2024/03/22 12:15:36;;;;;;;3.60;3.23;;;26.10;53.40;;;;;;4933969;28;20197;-88
2024/03/22 12:18:02;;;;;;;6.63;4.20;;;23.50;51.80;;;;;;4935331;28;20233;-86
2024/03/22 12:20:28;;;;;;;3.63;3.20;;;23.40;52.70;;;;;;4934526;28;20561;-86
2024/03/22 12:22:54;;;;;;;2.60;2.30;;;25.20;53.80;;;;;;4934728;28;20968;-86
2024/03/22 12:25:19;;;;;;;4.00;3.17;;;23.90;49.80;;;;;;4935904;28;20197;-86
2024/03/22 12:27:46;;;;;;;4.30;3.90;;;24.10;52.20;;;;;;4936289;28;20464;-86
2024/03/22 12:30:12;;;;;;;3.20;2.83;;;23.90;52.10;;;;;;4933170;28;20204;-87
2024/03/22 12:32:38;;;;;;;5.23;2.87;;;23.40;50.00;;;;;;4932558;28;20448;-87
2024/03/22 12:35:04;;;;;;;2.90;2.57;;;24.00;48.70;;;;;;4932755;28;20200;-87
2024/03/22 12:37:29;;;;;;;2.40;2.20;;;23.30;48.50;;;;;;4928689;28;20243;-85
2024/03/22 12:39:55;;;;;;;3.30;2.60;;;23.40;49.10;;;;;;4937666;28;20993;-86
2024/03/22 12:42:21;;;;;;;2.30;2.00;;;23.00;49.40;;;;;;4935675;28;20193;-87
2024/03/22 12:44:47;;;;;;;2.80;2.60;;;22.90;50.00;;;;;;4931217;29;20192;-87
2024/03/22 12:47:12;;;;;;;4.13;2.40;;;23.00;50.70;;;;;;4932185;28;20223;-87
2024/03/22 12:49:38;;;;;;;2.77;2.53;;;22.90;49.80;;;;;;4937649;29;20217;-87
2024/03/22 12:52:04;;;;;;;4.23;3.30;;;23.00;51.00;;;;;;4931349;28;20192;-87
2024/03/22 12:54:29;;;;;;;2.97;2.77;;;22.90;50.50;;;;;;4936505;29;20597;-87
2024/03/22 12:56:55;;;;;;;2.80;2.47;;;22.60;50.40;;;;;;4912281;28;20480;-87
2024/03/22 12:59:22;;;;;;;3.80;2.80;;;22.70;50.50;;;;;;4936935;28;20223;-85
2024/03/22 13:01:49;;;;;;;2.93;2.50;;;22.90;50.90;;;;;;4947501;28;20192;-85
2024/03/22 13:04:15;;;;;;;3.30;2.87;;;23.60;51.10;;;;;;4933928;28;20524;-86
2024/03/22 13:06:40;;;;;;;2.70;2.50;;;22.80;50.90;;;;;;4933636;29;20279;-86
2024/03/22 13:09:09;;;;;;;2.63;2.43;;;22.50;52.70;;;;;;4936424;28;20208;-86
2024/03/22 13:11:35;;;;;;;2.67;2.20;;;24.80;54.30;;;;;;4934940;28;20603;-87
2024/03/22 13:14:00;;;;;;;3.10;2.03;;;24.10;53.40;;;;;;4930899;28;20452;-86
2024/03/22 13:16:26;;;;;;;2.87;2.67;;;24.30;53.60;;;;;;4934332;28;20463;-86
2024/03/22 13:18:52;;;;;;;4.20;3.30;;;24.70;54.00;;;;;;4933119;29;20212;-87
2024/03/22 13:21:17;;;;;;;5.03;3.57;;;25.60;54.80;;;;;;4930119;28;20216;-87
2024/03/22 13:23:43;;;;;;;3.30;3.00;;;24.90;55.00;;;;;;4936539;28;20185;-88
2024/03/22 13:26:13;;;;;;;3.83;2.93;;;25.20;54.70;;;;;;4934381;28;20231;-89
2024/03/22 13:28:40;;;;;;;3.77;3.00;;;22.70;51.60;;;;;;4935488;28;20224;-87
2024/03/22 13:31:06;;;;;;;5.57;3.80;;;23.50;55.60;;;;;;4934207;28;20464;-88
2024/03/22 13:33:34;;;;;;;4.97;4.27;;;25.00;56.60;;;;;;4916870;29;20519;-86
2024/03/22 13:36:00;;;;;;;4.77;3.87;;;25.10;55.90;;;;;;4932768;28;20255;-88
2024/03/22 13:38:26;;;;;;;3.50;3.20;;;25.60;56.80;;;;;;4935832;28;20480;-88
2024/03/22 13:40:56;;;;;;;4.70;3.60;;;25.00;56.30;;;;;;4937980;29;20475;-84
2024/03/22 13:43:22;;;;;;;7.23;3.83;;;26.50;55.80;;;;;;4931072;28;20185;-85
2024/03/22 13:45:53;;;;;;;3.17;2.93;;;24.10;54.10;;;;;;4948556;28;20476;-84
2024/03/22 13:48:20;;;;;;;4.20;3.53;;;22.90;53.30;;;;;;4935792;28;20836;-85
2024/03/22 13:50:46;;;;;;;3.27;2.90;;;23.50;52.80;;;;;;4939253;28;20548;-86
2024/03/22 13:53:11;;;;;;;3.20;3.00;;;23.60;52.40;;;;;;4937503;28;20451;-86
2024/03/22 13:55:37;;;;;;;3.37;3.03;;;23.80;52.50;;;;;;4934566;28;20456;-84
2024/03/22 13:58:03;;;;;;;3.43;3.13;;;23.60;52.50;;;;;;4935999;28;20207;-83
2024/03/22 14:00:29;;;;;;;3.20;2.90;;;23.30;52.20;;;;;;4937956;28;20193;-84
2024/03/22 14:02:56;;;;;;;3.13;2.90;;;23.20;52.90;;;;;;4938248;28;20197;-84
2024/03/22 14:05:24;;;;;;;4.43;4.03;;;23.50;53.70;;;;;;4937690;28;20189;-85
2024/03/22 14:07:49;;;;;;;3.60;3.30;;;24.00;54.60;;;;;;4938429;28;20448;-83
2024/03/22 14:10:16;;;;;;;3.57;3.27;;;22.90;54.40;;;;;;4935830;28;20463;-84
2024/03/22 14:12:42;;;;;;;4.13;3.73;;;22.60;54.70;;;;;;4940259;28;20189;-84
2024/03/22 14:15:08;;;;;;;4.37;3.70;;;22.80;55.40;;;;;;4932364;28;20514;-83
2024/03/22 14:17:33;;;;;;;3.40;3.10;;;22.70;55.20;;;;;;4936495;28;21040;-84
2024/03/22 14:19:59;;;;;;;5.07;3.80;;;22.30;55.70;;;;;;4950129;28;20508;-83
2024/03/22 14:22:25;;;;;;;4.93;4.53;;;22.40;56.20;;;;;;4935836;28;20179;-83
2024/03/22 14:24:50;;;;;;;6.70;3.77;;;22.40;56.70;;;;;;4939081;28;20497;-83
2024/03/22 14:27:16;;;;;;;4.63;3.80;;;22.60;57.80;;;;;;4940006;28;20203;-82
2024/03/22 14:29:41;;;;;;;9.20;5.13;;;22.40;57.70;;;;;;4936111;28;20193;-83
2024/03/22 14:32:07;;;;;;;5.30;4.20;;;22.20;57.80;;;;;;4939985;28;20566;-84
2024/03/22 14:34:33;;;;;;;5.10;4.10;;;21.80;58.10;;;;;;4934673;28;20273;-82
2024/03/22 14:36:58;;;;;;;4.77;4.30;;;22.10;58.60;;;;;;4933706;28;20502;-83
2024/03/22 14:39:24;;;;;;;5.27;4.77;;;21.60;57.90;;;;;;4940253;28;20208;-82
2024/03/22 14:41:49;;;;;;;5.20;3.50;;;21.90;58.00;;;;;;4958524;28;20276;-87
2024/03/22 14:44:15;;;;;;;3.90;3.10;;;21.40;57.60;;;;;;4933689;28;20188;-87
2024/03/22 14:46:40;;;;;;;3.90;3.50;;;21.80;56.20;;;;;;4937494;28;20209;-87
2024/03/22 14:49:06;;;;;;;4.50;2.50;;;21.50;55.50;;;;;;4939081;28;20200;-88
2024/03/22 14:51:31;;;;;;;3.57;3.07;;;21.20;55.90;;;;;;4937556;28;20185;-88
2024/03/22 14:53:57;;;;;;;3.70;3.17;;;20.50;56.00;;;;;;4934404;28;20224;-88
2024/03/22 14:56:23;;;;;;;3.10;2.80;;;21.90;56.50;;;;;;4943492;28;20200;-88
2024/03/22 14:58:50;;;;;;;3.83;2.20;;;21.60;57.40;;;;;;4940289;29;20208;-87
2024/03/22 15:01:15;;;;;;;2.40;2.20;;;21.20;55.60;;;;;;4939494;28;20241;-87
2024/03/22 15:03:41;;;;;;;4.73;2.53;;;21.20;54.70;;;;;;4938354;29;20216;-88
2024/03/22 15:06:06;;;;;;;1.90;1.60;;;21.70;55.10;;;;;;4946674;28;20213;-87
2024/03/22 15:08:32;;;;;;;2.83;2.17;;;21.20;54.40;;;;;;4951141;28;20194;-88
2024/03/22 15:10:58;;;;;;;4.47;2.57;;;23.60;56.50;;;;;;4952604;28;20193;-87
2024/03/22 15:13:23;;;;;;;2.33;2.13;;;23.50;56.10;;;;;;4952885;28;20177;-86
2024/03/22 15:15:56;;;;;;;3.90;2.50;;;23.40;57.20;;;;;;4950451;29;20267;-87
2024/03/22 15:18:22;;;;;;;3.28;2.67;;;22.10;54.40;;;;;;4947611;28;20292;-87
2024/03/22 15:20:48;;;;;;;3.20;2.53;;;21.00;54.60;;;;;;4950341;29;20196;-86
2024/03/22 15:23:15;;;;;;;2.30;2.10;;;20.80;54.10;;;;;;4960045;28;20538;-88
2024/03/22 15:25:42;;;;;;;7.05;2.55;;;23.00;55.10;;;;;;4932785;29;20216;-86
2024/03/22 15:28:07;;;;;;;4.60;2.45;;;21.10;54.20;;;;;;4950934;28;20644;-86
2024/03/22 15:30:36;;;;;;;2.47;2.27;;;21.60;55.50;;;;;;4939207;28;20288;-87
2024/03/22 15:33:03;;;;;;;3.15;1.85;;;21.60;55.70;;;;;;4949178;28;20184;-87
2024/03/22 15:35:30;;;;;;;3.33;3.03;;;20.50;55.10;;;;;;4945289;28;20185;-87
2024/03/22 15:37:56;;;;;;;2.80;2.55;;;21.90;56.20;;;;;;4944183;28;20184;-87
2024/03/22 15:40:39;;;;;;;2.00;1.90;;;20.00;54.10;;;;;;4944159;28;20244;-87
2024/03/22 15:43:08;;;;;;;3.47;1.90;;;20.60;56.90;;;;;;4940937;29;20468;-88
2024/03/22 15:45:36;;;;;;;2.90;2.63;;;20.30;54.50;;;;;;4950414;28;20562;-87
2024/03/22 15:48:03;;;;;;;3.42;2.25;;;22.20;56.50;;;;;;4949599;28;20274;-86
2024/03/22 15:50:28;;;;;;;2.60;2.40;;;;;;;;;;4942511;28;21223;-85
2024/03/22 15:52:54;;;;;;;3.10;2.60;;;20.00;54.00;;;;;;4945223;28;20544;-86
2024/03/22 15:55:20;;;;;;;4.60;2.30;;;20.80;55.90;;;;;;4938471;28;20486;-86
2024/03/22 15:57:49;;;;;;;4.10;2.90;;;22.90;59.30;;;;;;4948664;28;20211;-87
2024/03/22 16:00:16;;;;;;;4.68;2.53;;;19.90;59.00;;;;;;4941366;28;20363;-87
2024/03/22 16:02:43;;;;;;;6.55;3.50;;;19.70;56.80;;;;;;4951380;28;20255;-86
2024/03/22 16:05:08;;;;;;;4.93;2.30;;;20.10;57.70;;;;;;4943513;28;20407;-86
2024/03/22 16:07:35;;;;;;;2.30;2.10;;;21.30;57.80;;;;;;4936595;28;20217;-88
2024/03/22 16:10:02;;;;;;;2.70;2.50;;;21.80;58.50;;;;;;4937775;29;20197;-86